createdAt,value
2023-01-05T00:02:18.800Z,8.78
2023-01-05T00:04:54.097Z,8.81
2023-01-05T00:07:24.274Z,8.82
2023-01-05T00:09:54.612Z,8.81
2023-01-05T00:12:57.578Z,8.82
2023-01-05T00:15:51.805Z,8.83
2023-01-05T00:18:40.370Z,8.84
2023-01-05T00:21:33.337Z,8.87
2023-01-05T00:24:04.295Z,8.91
2023-01-05T00:26:34.952Z,8.94
2023-01-05T00:29:05.034Z,8.95
2023-01-05T00:31:35.736Z,8.94
2023-01-05T00:34:06.025Z,8.94
2023-01-05T00:36:36.082Z,8.94
2023-01-05T00:39:07.965Z,8.94
2023-01-05T00:41:38.721Z,8.99
2023-01-05T00:44:09.590Z,8.99
2023-01-05T00:46:40.078Z,8.99
2023-01-05T00:49:10.359Z,8.99
2023-01-05T00:51:40.260Z,9.02
2023-01-05T00:54:10.812Z,9.05
2023-01-05T00:56:41.697Z,9.07
2023-01-05T00:59:12.328Z,9.09
2023-01-05T01:01:45.424Z,9.10
2023-01-05T01:04:15.824Z,9.13
2023-01-05T01:06:47.053Z,9.16
2023-01-05T01:09:17.469Z,9.17
2023-01-05T01:11:47.636Z,9.17
2023-01-05T01:14:18.535Z,9.19
2023-01-05T01:16:49.019Z,9.19
2023-01-05T01:19:21.295Z,9.21
2023-01-05T01:21:52.362Z,9.22
2023-01-05T01:24:24.072Z,9.22
2023-01-05T01:26:54.668Z,9.22
2023-01-05T01:29:26.339Z,9.23
2023-01-05T01:31:56.373Z,9.23
2023-01-05T01:34:27.049Z,9.22
2023-01-05T01:36:58.739Z,9.22
2023-01-05T01:39:33.139Z,9.21
2023-01-05T01:42:14.724Z,9.20
2023-01-05T01:45:00.304Z,9.21
2023-01-05T01:47:44.651Z,9.22
2023-01-05T01:50:19.081Z,9.23
2023-01-05T01:52:52.814Z,9.23
2023-01-05T01:55:23.495Z,9.23
2023-01-05T01:57:54.444Z,9.22
2023-01-05T02:00:25.234Z,9.24
2023-01-05T02:02:56.563Z,9.25
2023-01-05T02:05:31.546Z,9.27
2023-01-05T02:08:01.893Z,9.30
2023-01-05T02:10:43.622Z,9.32
2023-01-05T02:13:31.773Z,9.34
2023-01-05T02:16:17.707Z,9.35
2023-01-05T02:19:07.846Z,9.37
2023-01-05T02:21:52.497Z,9.37
2023-01-05T02:25:10.008Z,9.39
2023-01-05T02:27:59.292Z,9.42
2023-01-05T02:31:00.364Z,9.44
2023-01-05T02:34:07.203Z,9.45
2023-01-05T02:36:43.216Z,9.46
2023-01-05T02:39:17.481Z,9.49
2023-01-05T02:41:54.550Z,9.52
2023-01-05T02:44:30.170Z,9.53
2023-01-05T02:47:06.285Z,9.54
2023-01-05T02:49:41.102Z,9.57
2023-01-05T02:52:13.961Z,9.57
2023-01-05T02:54:50.902Z,9.58
2023-01-05T02:57:46.583Z,9.61
2023-01-05T03:00:23.257Z,9.63
2023-01-05T03:02:56.918Z,9.62
2023-01-05T03:05:33.010Z,9.62
2023-01-05T03:08:24.152Z,9.60
2023-01-05T03:11:26.301Z,9.59
2023-01-05T03:14:04.178Z,9.60
2023-01-05T03:16:39.336Z,9.62
2023-01-05T03:19:30.897Z,9.64
2023-01-05T03:22:25.286Z,9.66
2023-01-05T03:25:15.752Z,9.66
2023-01-05T03:28:06.017Z,9.66
2023-01-05T03:31:04.387Z,9.68
2023-01-05T03:34:02.406Z,9.69
2023-01-05T03:36:39.009Z,9.69
2023-01-05T03:39:11.614Z,9.69
2023-01-05T03:41:42.937Z,9.69
2023-01-05T03:44:14.059Z,9.69
2023-01-05T03:46:45.649Z,9.72
2023-01-05T03:49:17.272Z,9.72
2023-01-05T03:51:47.248Z,9.72
2023-01-05T03:54:17.633Z,9.70
2023-01-05T03:56:49.412Z,9.70
2023-01-05T03:59:20.982Z,9.70
2023-01-05T04:01:51.759Z,9.71
2023-01-05T04:04:22.820Z,9.69
2023-01-05T04:06:53.131Z,9.67
2023-01-05T04:09:23.994Z,9.65
2023-01-05T04:11:54.914Z,9.63
2023-01-05T04:14:25.379Z,9.58
2023-01-05T04:16:56.402Z,9.56
2023-01-05T04:19:27.129Z,9.55
2023-01-05T04:21:58.251Z,9.55
2023-01-05T04:24:29.060Z,9.54
2023-01-05T04:26:59.546Z,9.51
2023-01-05T04:29:29.912Z,9.49
2023-01-05T04:32:01.220Z,9.48
2023-01-05T04:34:32.142Z,9.49
2023-01-05T04:37:02.945Z,9.49
2023-01-05T04:39:34.468Z,9.47
2023-01-05T04:42:05.379Z,9.46
2023-01-05T04:44:36.504Z,9.46
2023-01-05T04:47:07.581Z,9.47
2023-01-05T04:49:39.918Z,9.47
2023-01-05T04:52:11.414Z,9.47
2023-01-05T04:54:41.435Z,9.45
2023-01-05T04:57:12.222Z,9.48
2023-01-05T04:59:42.858Z,9.50
2023-01-05T05:02:13.787Z,9.49
2023-01-05T05:04:45.382Z,9.50
2023-01-05T05:07:16.894Z,9.50
2023-01-05T05:09:47.438Z,9.47
2023-01-05T05:12:20.172Z,9.47
2023-01-05T05:14:52.930Z,9.47
2023-01-05T05:17:23.377Z,9.49
2023-01-05T05:19:53.867Z,9.52
2023-01-05T05:22:25.960Z,9.51
2023-01-05T05:24:56.132Z,9.49
2023-01-05T05:27:26.720Z,9.49
2023-01-05T05:29:56.819Z,9.48
2023-01-05T05:32:27.429Z,9.48
2023-01-05T05:34:57.994Z,9.47
2023-01-05T05:37:28.416Z,9.47
2023-01-05T05:39:58.802Z,9.47
2023-01-05T05:42:28.950Z,9.46
2023-01-05T05:44:59.245Z,9.47
2023-01-05T05:47:29.531Z,9.48
2023-01-05T05:50:00.223Z,9.48
2023-01-05T05:52:30.696Z,9.47
2023-01-05T05:55:00.801Z,9.46
2023-01-05T05:57:31.441Z,9.46
2023-01-05T06:00:01.438Z,9.45
2023-01-05T06:02:31.916Z,9.45
2023-01-05T06:05:02.602Z,9.44
2023-01-05T06:07:32.532Z,9.45
2023-01-05T06:10:03.324Z,9.49
2023-01-05T06:12:34.121Z,9.51
2023-01-05T06:15:05.255Z,9.52
2023-01-05T06:17:35.479Z,9.53
2023-01-05T06:20:09.108Z,9.55
2023-01-05T06:22:39.270Z,9.58
2023-01-05T06:25:11.415Z,9.60
2023-01-05T06:27:41.914Z,9.62
2023-01-05T06:30:14.142Z,9.66
2023-01-05T06:32:44.106Z,9.69
2023-01-05T06:35:14.447Z,9.69
2023-01-05T06:37:45.179Z,9.70
2023-01-05T06:40:15.975Z,9.72
2023-01-05T06:42:46.501Z,9.75
2023-01-05T06:45:17.726Z,9.76
2023-01-05T06:47:48.259Z,9.77
2023-01-05T06:50:18.942Z,9.79
2023-01-05T06:52:49.496Z,9.83
2023-01-05T06:55:21.521Z,9.86
2023-01-05T06:57:57.072Z,9.90
2023-01-05T07:00:31.351Z,9.92
2023-01-05T07:03:01.741Z,9.94
2023-01-05T07:05:33.021Z,9.97
2023-01-05T07:08:03.600Z,9.98
2023-01-05T07:10:33.861Z,9.99
2023-01-05T07:13:04.569Z,9.98
2023-01-05T07:15:34.755Z,9.97
2023-01-05T07:18:05.478Z,9.99
2023-01-05T07:20:36.145Z,10.00
2023-01-05T07:23:06.447Z,10.00
2023-01-05T07:25:36.690Z,10.00
2023-01-05T07:28:07.329Z,9.99
2023-01-05T07:30:37.682Z,9.99
2023-01-05T07:33:07.875Z,10.01
2023-01-05T07:35:38.668Z,10.02
2023-01-05T07:38:08.926Z,10.06
2023-01-05T07:40:39.258Z,10.08
2023-01-05T07:43:09.575Z,10.10
2023-01-05T07:45:39.870Z,10.12
2023-01-05T07:48:10.184Z,10.14
2023-01-05T07:50:40.698Z,10.17
2023-01-05T07:53:11.006Z,10.21
2023-01-05T07:55:41.585Z,10.26
2023-01-05T07:58:12.690Z,10.31
2023-01-05T08:00:43.110Z,10.38
2023-01-05T08:03:14.945Z,10.43
2023-01-05T08:05:46.051Z,10.43
2023-01-05T08:08:22.260Z,10.40
2023-01-05T08:10:55.335Z,10.39
2023-01-05T08:13:39.997Z,10.37
2023-01-05T08:16:10.818Z,10.37
2023-01-05T08:18:41.308Z,10.36
2023-01-05T08:21:12.025Z,10.35
2023-01-05T08:23:42.324Z,10.36
2023-01-05T08:26:15.332Z,10.38
2023-01-05T08:28:46.574Z,10.40
2023-01-05T08:31:19.268Z,10.42
2023-01-05T08:33:50.292Z,10.45
2023-01-05T08:36:21.249Z,10.47
2023-01-05T08:38:52.787Z,10.50
2023-01-05T08:41:25.179Z,10.53
2023-01-05T08:43:57.683Z,10.53
2023-01-05T08:46:29.598Z,10.52
2023-01-05T08:49:01.288Z,10.52
2023-01-05T08:51:32.255Z,10.51
2023-01-05T08:54:03.326Z,10.52
2023-01-05T08:56:38.597Z,10.50
2023-01-05T08:59:13.756Z,10.48
2023-01-05T09:01:44.321Z,10.47
2023-01-05T09:04:15.655Z,10.45
2023-01-05T09:06:45.852Z,10.40
2023-01-05T09:09:16.409Z,10.36
2023-01-05T09:11:46.608Z,10.36
2023-01-05T09:14:17.183Z,10.36
2023-01-05T09:19:38.844Z,10.38
2023-01-05T09:22:09.267Z,10.39
2023-01-05T09:24:40.390Z,10.40
2023-01-05T09:27:11.111Z,10.40
2023-01-05T09:29:41.607Z,10.42
2023-01-05T09:32:12.026Z,10.48
2023-01-05T09:34:42.590Z,10.55
2023-01-05T09:37:12.512Z,10.60
2023-01-05T09:39:43.243Z,10.65
2023-01-05T09:42:17.436Z,10.73
2023-01-05T09:44:56.927Z,10.82
2023-01-05T09:47:33.136Z,10.95
2023-01-05T09:50:05.789Z,11.07
2023-01-05T09:52:38.702Z,11.13
2023-01-05T09:55:17.395Z,11.14
2023-01-05T09:57:53.860Z,11.17
2023-01-05T10:00:26.956Z,11.21
2023-01-05T10:03:01.619Z,11.26
2023-01-05T10:05:34.494Z,11.29
2023-01-05T10:08:08.494Z,11.33
2023-01-05T10:10:46.116Z,11.37
2023-01-05T10:13:26.548Z,11.42
2023-01-05T10:15:57.267Z,11.49
2023-01-05T10:18:28.854Z,11.54
2023-01-05T10:21:11.344Z,11.59
2023-01-05T10:24:13.114Z,11.85
2023-01-05T10:27:23.525Z,12.36
2023-01-05T10:29:46.187Z,12.69
2023-01-05T10:32:26.292Z,12.92
2023-01-05T10:35:02.276Z,12.92
2023-01-05T10:37:49.519Z,12.83
2023-01-05T10:40:32.055Z,12.86
2023-01-05T10:43:24.329Z,12.88
2023-01-05T10:46:28.536Z,12.90
2023-01-05T10:48:46.078Z,12.86
2023-01-05T10:51:16.375Z,12.77
2023-01-05T10:53:47.330Z,12.67
2023-01-05T10:56:25.167Z,12.61
2023-01-05T10:59:09.232Z,12.60
2023-01-05T11:01:45.578Z,12.58
2023-01-05T11:04:35.891Z,12.52
2023-01-05T11:07:08.042Z,12.37
2023-01-05T11:09:43.517Z,12.20
2023-01-05T11:12:19.962Z,12.05
2023-01-05T11:14:58.315Z,11.89
2023-01-05T11:17:30.573Z,11.77
2023-01-05T11:20:00.900Z,11.70
2023-01-05T11:22:34.721Z,11.64
2023-01-05T11:25:23.465Z,11.59
2023-01-05T11:28:12.442Z,11.57
2023-01-05T11:30:58.859Z,11.52
2023-01-05T11:33:30.561Z,11.48
2023-01-05T11:36:01.544Z,11.46
2023-01-05T11:38:32.719Z,11.45
2023-01-05T11:41:03.541Z,11.47
2023-01-05T11:43:34.335Z,11.50
2023-01-05T11:46:07.215Z,11.54
2023-01-05T11:48:37.909Z,11.60
2023-01-05T11:51:08.654Z,11.65
2023-01-05T11:53:40.387Z,11.68
2023-01-05T11:56:22.079Z,11.62
2023-01-05T11:58:54.685Z,11.59
2023-01-05T12:01:42.334Z,11.55
2023-01-05T12:04:40.511Z,11.51
2023-01-05T12:07:24.444Z,11.48
2023-01-05T12:10:01.196Z,11.45
2023-01-05T12:12:45.657Z,11.38
2023-01-05T12:15:37.510Z,11.39
2023-01-05T12:18:22.807Z,11.36
2023-01-05T12:21:05.180Z,11.28
2023-01-05T12:23:59.540Z,11.20
2023-01-05T12:26:34.874Z,11.15
2023-01-05T12:36:02.203Z,11.08
2023-01-05T12:38:44.948Z,11.06
2023-01-05T12:41:48.921Z,11.01
2023-01-05T12:44:49.176Z,10.95
2023-01-05T12:47:37.545Z,10.89
2023-01-05T12:50:22.902Z,10.82
2023-01-05T12:53:01.135Z,10.74
2023-01-05T12:55:38.625Z,10.70
2023-01-05T12:58:15.507Z,10.65
2023-01-05T13:00:48.528Z,10.59
2023-01-05T13:03:27.180Z,10.53
2023-01-05T13:06:03.055Z,10.46
2023-01-05T13:08:41.270Z,10.38
2023-01-05T13:11:22.862Z,10.33
2023-01-05T13:13:57.143Z,10.29
2023-01-05T13:16:33.264Z,10.24
2023-01-05T13:19:07.621Z,10.19
2023-01-05T13:21:40.507Z,10.12
2023-01-05T13:24:17.547Z,10.06
2023-01-05T13:26:47.601Z,10.01
2023-01-05T13:29:24.671Z,9.97
2023-01-05T13:32:14.923Z,9.90
2023-01-05T13:35:01.214Z,9.83
2023-01-05T13:37:52.643Z,9.80
2023-01-05T13:41:00.564Z,9.78
2023-01-05T13:43:45.298Z,9.76
2023-01-05T13:46:42.499Z,9.72
2023-01-05T13:49:44.866Z,9.71
2023-01-05T13:52:31.431Z,9.68
2023-01-05T13:55:04.998Z,9.68
2023-01-05T13:57:41.384Z,9.67
2023-01-05T14:00:25.211Z,9.66
2023-01-05T14:03:07.139Z,9.63
2023-01-05T14:05:49.430Z,9.59
2023-01-05T14:08:25.657Z,9.56
2023-01-05T14:11:19.223Z,9.55
2023-01-05T14:13:53.319Z,9.53
2023-01-05T14:16:49.703Z,9.52
2023-01-05T14:19:25.714Z,9.53
2023-01-05T14:22:24.009Z,9.51
2023-01-05T14:24:54.998Z,9.46
2023-01-05T14:27:26.181Z,9.43
2023-01-05T14:30:20.067Z,9.43
2023-01-05T14:32:55.452Z,9.42
2023-01-05T14:35:35.688Z,9.42
2023-01-05T14:38:17.262Z,9.41
2023-01-05T14:40:50.918Z,9.40
2023-01-05T14:43:38.107Z,9.40
2023-01-05T14:46:11.740Z,9.40
2023-01-05T14:48:44.972Z,9.41
2023-01-05T14:51:24.294Z,9.40
2023-01-05T14:53:57.101Z,9.37
2023-01-05T14:56:29.601Z,9.36
2023-01-05T14:59:13.584Z,9.34
2023-01-05T15:01:50.476Z,9.36
2023-01-05T15:04:28.061Z,9.38
2023-01-05T15:07:22.850Z,9.39
2023-01-05T15:10:24.848Z,9.39
2023-01-05T15:13:14.645Z,9.39
2023-01-05T15:15:55.733Z,9.40
2023-01-05T15:18:54.395Z,9.39
2023-01-05T15:21:46.585Z,9.40
2023-01-05T15:24:54.006Z,9.40
2023-01-05T15:27:57.068Z,9.43
2023-01-05T15:30:43.767Z,9.43
2023-01-05T15:33:19.269Z,9.43
2023-01-05T15:35:55.506Z,9.44
2023-01-05T15:38:28.347Z,9.45
2023-01-05T15:41:06.869Z,9.45
2023-01-05T15:43:39.528Z,9.44
2023-01-05T15:46:10.734Z,9.41
2023-01-05T15:48:43.613Z,9.38
2023-01-05T15:51:24.411Z,9.35
2023-01-05T15:53:58.982Z,9.26
2023-01-05T15:56:33.518Z,9.17
2023-01-05T15:59:18.602Z,9.11
2023-01-05T16:01:48.902Z,9.06
2023-01-05T16:04:19.565Z,9.01
2023-01-05T16:06:53.154Z,8.97
2023-01-05T16:09:27.819Z,8.95
2023-01-05T16:12:02.923Z,8.95
2023-01-05T16:14:46.260Z,8.94
2023-01-05T16:17:19.659Z,8.91
2023-01-05T16:19:56.133Z,8.87
2023-01-05T16:22:35.491Z,8.84
2023-01-05T16:25:12.229Z,8.82
2023-01-05T16:27:49.491Z,8.81
2023-01-05T16:30:31.842Z,8.79
2023-01-05T16:33:05.154Z,8.76
2023-01-05T16:35:42.752Z,8.72
2023-01-05T16:38:25.968Z,8.68
2023-01-05T16:41:06.303Z,8.66
2023-01-05T16:43:41.419Z,8.65
2023-01-05T16:46:30.269Z,8.63
2023-01-05T16:49:04.139Z,8.59
2023-01-05T16:51:43.010Z,8.57
2023-01-05T16:54:20.811Z,8.55
2023-01-05T16:56:58.928Z,8.54
2023-01-05T16:59:43.595Z,8.55
2023-01-05T17:02:48.584Z,8.54
2023-01-05T17:05:24.619Z,8.48
2023-01-05T17:08:03.822Z,8.45
2023-01-05T17:10:34.501Z,8.44
2023-01-05T17:13:08.270Z,8.43
2023-01-05T17:15:42.991Z,8.40
2023-01-05T17:18:17.821Z,8.33
2023-01-05T17:20:49.036Z,8.29
2023-01-05T17:23:28.913Z,8.26
2023-01-05T17:26:02.537Z,8.24
2023-01-05T17:28:33.117Z,8.20
2023-01-05T17:31:04.055Z,8.17
2023-01-05T17:33:34.965Z,8.13
2023-01-05T17:36:06.466Z,8.10
2023-01-05T17:38:37.446Z,8.07
2023-01-05T17:41:08.146Z,8.01
2023-01-05T17:43:38.929Z,7.96
2023-01-05T17:46:14.836Z,7.95
2023-01-05T17:48:45.442Z,7.95
2023-01-05T17:51:15.993Z,7.94
2023-01-05T17:53:46.320Z,7.96
2023-01-05T17:56:18.689Z,7.99
2023-01-05T17:58:51.140Z,7.99
2023-01-05T18:01:21.630Z,7.96
2023-01-05T18:03:52.471Z,7.94
2023-01-05T18:06:24.056Z,7.93
2023-01-05T18:08:54.252Z,7.92
2023-01-05T18:11:25.357Z,7.90
2023-01-05T18:13:56.327Z,7.88
2023-01-05T18:16:27.203Z,7.91
2023-01-05T18:18:58.429Z,7.92
2023-01-05T18:21:29.828Z,7.94
2023-01-05T18:24:00.909Z,7.94
2023-01-05T18:26:32.251Z,7.93
2023-01-05T18:29:02.904Z,7.93
2023-01-05T18:31:35.989Z,7.93
2023-01-05T18:34:10.800Z,7.92
2023-01-05T18:36:42.446Z,7.90
2023-01-05T18:39:14.241Z,7.88
2023-01-05T18:41:45.074Z,7.89
2023-01-05T18:44:16.827Z,7.89
2023-01-05T18:46:47.483Z,7.89
2023-01-05T18:49:18.447Z,7.89
2023-01-05T18:51:51.709Z,7.87
2023-01-05T18:54:24.515Z,7.82
2023-01-05T18:56:55.626Z,7.77
2023-01-05T18:59:26.405Z,7.76
2023-01-05T19:01:57.458Z,7.75
2023-01-05T19:04:29.247Z,7.74
2023-01-05T19:07:00.514Z,7.74
2023-01-05T19:09:31.883Z,7.71
2023-01-05T19:12:02.569Z,7.70
2023-01-05T19:14:34.027Z,7.69
2023-01-05T19:17:04.631Z,7.69
2023-01-05T19:19:36.297Z,7.67
2023-01-05T19:22:07.408Z,7.65
2023-01-05T19:24:38.647Z,7.62
2023-01-05T19:27:09.913Z,7.59
2023-01-05T19:29:41.740Z,7.52
2023-01-05T19:32:13.283Z,7.47
2023-01-05T19:34:43.791Z,7.44
2023-01-05T19:37:14.429Z,7.43
2023-01-05T19:39:47.563Z,7.40
2023-01-05T19:42:18.243Z,7.35
2023-01-05T19:44:50.091Z,7.28
2023-01-05T19:47:21.824Z,7.25
2023-01-05T19:49:57.524Z,7.25
2023-01-05T19:52:30.475Z,7.26
2023-01-05T19:55:02.362Z,7.23
2023-01-05T19:57:33.082Z,7.22
2023-01-05T20:00:07.643Z,7.21
2023-01-05T20:02:43.193Z,7.18
2023-01-05T20:05:15.107Z,7.16
2023-01-05T20:07:47.162Z,7.12
2023-01-05T20:10:19.883Z,7.07
2023-01-05T20:12:53.728Z,7.03
2023-01-05T20:15:25.435Z,7.00
2023-01-05T20:17:57.359Z,6.97
2023-01-05T20:20:29.044Z,6.95
2023-01-05T20:23:02.741Z,6.96
2023-01-05T20:25:37.418Z,6.91
2023-01-05T20:28:14.840Z,6.90
2023-01-05T20:30:47.312Z,6.88
2023-01-05T20:33:20.108Z,6.86
2023-01-05T20:35:52.066Z,6.79
2023-01-05T20:38:24.136Z,6.77
2023-01-05T20:40:54.470Z,6.77
2023-01-05T20:43:26.355Z,6.76
2023-01-05T20:45:58.636Z,6.73
2023-01-05T20:48:32.242Z,6.68
2023-01-05T20:51:05.886Z,6.65
2023-01-05T20:53:37.711Z,6.63
2023-01-05T20:56:12.178Z,6.61
2023-01-05T20:58:45.087Z,6.59
2023-01-05T21:01:17.107Z,6.58
2023-01-05T21:03:48.889Z,6.58
2023-01-05T21:06:20.695Z,6.54
2023-01-05T21:08:52.374Z,6.50
2023-01-05T21:11:25.555Z,6.48
2023-01-05T21:13:57.836Z,6.47
2023-01-05T21:16:29.999Z,6.45
2023-01-05T21:19:01.493Z,6.40
2023-01-05T21:21:33.132Z,6.36
2023-01-05T21:24:07.384Z,6.34
2023-01-05T21:26:37.749Z,6.32
2023-01-05T21:29:09.555Z,6.28
2023-01-05T21:31:41.480Z,6.28
2023-01-05T21:34:12.676Z,6.28
2023-01-05T21:36:45.487Z,6.25
2023-01-05T21:39:20.157Z,6.24
2023-01-05T21:42:09.859Z,6.23
2023-01-05T21:44:41.032Z,6.24
2023-01-05T21:47:12.540Z,6.23
2023-01-05T21:49:43.980Z,6.20
2023-01-05T21:52:32.194Z,6.17
2023-01-05T21:55:19.825Z,6.13
2023-01-05T21:57:50.363Z,6.06
2023-01-05T22:00:21.188Z,5.98
2023-01-05T22:02:51.667Z,5.94
2023-01-05T22:05:22.679Z,5.89
2023-01-05T22:07:52.996Z,5.86
2023-01-05T22:10:23.494Z,5.84
2023-01-05T22:12:55.687Z,5.86
2023-01-05T22:15:26.675Z,5.85
2023-01-05T22:17:57.178Z,5.83
2023-01-05T22:20:27.756Z,5.82
2023-01-05T22:22:58.439Z,5.80
2023-01-05T22:25:28.879Z,5.78
2023-01-05T22:27:59.474Z,5.73
2023-01-05T22:30:29.755Z,5.70
2023-01-05T22:32:59.957Z,5.67
2023-01-05T22:35:30.315Z,5.64
2023-01-05T22:38:01.137Z,5.60
2023-01-05T22:40:31.477Z,5.57
2023-01-05T22:43:01.599Z,5.54
2023-01-05T22:45:33.625Z,5.53
2023-01-05T22:48:04.693Z,5.54
2023-01-05T22:50:35.010Z,5.55
2023-01-05T22:53:05.952Z,5.55
2023-01-05T22:55:36.025Z,5.54
2023-01-05T22:58:06.293Z,5.54
2023-01-05T23:00:36.982Z,5.55
2023-01-05T23:03:07.706Z,5.55
2023-01-05T23:05:39.882Z,5.57
2023-01-05T23:08:10.780Z,5.56
2023-01-05T23:10:41.707Z,5.57
2023-01-05T23:13:11.962Z,5.58
2023-01-05T23:15:42.047Z,5.58
2023-01-05T23:18:12.767Z,5.56
2023-01-05T23:20:43.197Z,5.54
2023-01-05T23:23:13.255Z,5.51
2023-01-05T23:25:45.248Z,5.51
2023-01-05T23:28:17.735Z,5.52
2023-01-05T23:30:50.300Z,5.53
2023-01-05T23:33:22.686Z,5.54
2023-01-05T23:35:54.512Z,5.55
2023-01-05T23:38:26.172Z,5.55
2023-01-05T23:40:57.844Z,5.57
2023-01-05T23:43:29.547Z,5.56
2023-01-05T23:46:05.231Z,5.54
2023-01-05T23:48:36.838Z,5.53
2023-01-05T23:51:13.284Z,5.49
2023-01-05T23:53:45.143Z,5.45
2023-01-05T23:56:17.064Z,5.38
2023-01-05T23:58:47.240Z,5.33
